sensor_id;sensor_type;location;lat;lon;timestamp;temperature;humidity
3794;DHT22;1912;51.358;12.282;2022-12-07T00:01:37;2.00;1.00
3794;DHT22;1912;51.358;12.282;2022-12-07T00:04:05;1.90;1.00
3794;DHT22;1912;51.358;12.282;2022-12-07T00:06:33;2.00;1.00
3794;DHT22;1912;51.358;12.282;2022-12-07T00:09:08;1.90;1.00
3794;DHT22;1912;51.358;12.282;2022-12-07T00:11:37;1.90;1.00
3794;DHT22;1912;51.358;12.282;2022-12-07T00:14:05;1.80;1.00
3794;DHT22;1912;51.358;12.282;2022-12-07T00:16:34;1.80;1.00
3794;DHT22;1912;51.358;12.282;2022-12-07T00:19:00;1.70;1.00
3794;DHT22;1912;51.358;12.282;2022-12-07T00:21:31;1.60;1.00
3794;DHT22;1912;51.358;12.282;2022-12-07T00:23:59;1.50;1.00
3794;DHT22;1912;51.358;12.282;2022-12-07T00:26:28;1.40;1.00
3794;DHT22;1912;51.358;12.282;2022-12-07T00:29:18;1.40;1.00
3794;DHT22;1912;51.358;12.282;2022-12-07T00:31:45;1.30;1.00
3794;DHT22;1912;51.358;12.282;2022-12-07T00:34:19;1.30;1.00
3794;DHT22;1912;51.358;12.282;2022-12-07T00:36:45;1.20;1.00
3794;DHT22;1912;51.358;12.282;2022-12-07T00:39:11;1.20;1.00
3794;DHT22;1912;51.358;12.282;2022-12-07T00:41:36;1.20;1.00
3794;DHT22;1912;51.358;12.282;2022-12-07T00:44:02;1.10;1.00
3794;DHT22;1912;51.358;12.282;2022-12-07T00:46:29;1.10;1.00
3794;DHT22;1912;51.358;12.282;2022-12-07T00:48:55;1.00;1.00
3794;DHT22;1912;51.358;12.282;2022-12-07T00:51:23;0.90;1.00
3794;DHT22;1912;51.358;12.282;2022-12-07T00:53:50;0.80;1.00
3794;DHT22;1912;51.358;12.282;2022-12-07T00:56:21;0.80;1.00
3794;DHT22;1912;51.358;12.282;2022-12-07T00:58:56;0.80;1.00
3794;DHT22;1912;51.358;12.282;2022-12-07T01:01:25;0.70;1.00
3794;DHT22;1912;51.358;12.282;2022-12-07T01:03:53;0.70;1.00
3794;DHT22;1912;51.358;12.282;2022-12-07T01:06:20;0.60;1.00
3794;DHT22;1912;51.358;12.282;2022-12-07T01:08:47;0.60;1.00
3794;DHT22;1912;51.358;12.282;2022-12-07T01:11:15;0.60;1.00
3794;DHT22;1912;51.358;12.282;2022-12-07T01:13:43;0.50;1.00
3794;DHT22;1912;51.358;12.282;2022-12-07T01:16:12;0.50;1.00
3794;DHT22;1912;51.358;12.282;2022-12-07T01:18:39;0.50;1.00
3794;DHT22;1912;51.358;12.282;2022-12-07T01:21:14;0.50;1.00
3794;DHT22;1912;51.358;12.282;2022-12-07T01:23:41;0.50;1.00
3794;DHT22;1912;51.358;12.282;2022-12-07T01:26:10;0.50;1.00
3794;DHT22;1912;51.358;12.282;2022-12-07T01:28:37;0.40;1.00
3794;DHT22;1912;51.358;12.282;2022-12-07T01:31:09;0.40;1.00
3794;DHT22;1912;51.358;12.282;2022-12-07T01:33:37;0.40;1.00
3794;DHT22;1912;51.358;12.282;2022-12-07T01:38:34;0.30;1.00
3794;DHT22;1912;51.358;12.282;2022-12-07T01:41:01;0.30;1.00
3794;DHT22;1912;51.358;12.282;2022-12-07T01:43:29;0.30;1.00
3794;DHT22;1912;51.358;12.282;2022-12-07T01:45:56;0.20;1.00
3794;DHT22;1912;51.358;12.282;2022-12-07T01:48:27;0.20;1.00
3794;DHT22;1912;51.358;12.282;2022-12-07T01:50:59;0.20;1.00
3794;DHT22;1912;51.358;12.282;2022-12-07T01:53:28;0.20;1.00
3794;DHT22;1912;51.358;12.282;2022-12-07T01:55:56;0.20;1.00
3794;DHT22;1912;51.358;12.282;2022-12-07T01:58:24;0.20;1.00
3794;DHT22;1912;51.358;12.282;2022-12-07T02:00:50;0.20;1.00
3794;DHT22;1912;51.358;12.282;2022-12-07T02:03:24;0.10;1.00
3794;DHT22;1912;51.358;12.282;2022-12-07T02:06:22;0.10;1.00
3794;DHT22;1912;51.358;12.282;2022-12-07T02:08:49;0.10;1.00
3794;DHT22;1912;51.358;12.282;2022-12-07T02:11:16;0.10;1.00
3794;DHT22;1912;51.358;12.282;2022-12-07T02:13:43;0.10;1.00
3794;DHT22;1912;51.358;12.282;2022-12-07T02:16:38;0.10;1.00
3794;DHT22;1912;51.358;12.282;2022-12-07T02:27:39;0.20;1.00
3794;DHT22;1912;51.358;12.282;2022-12-07T02:30:21;0.20;1.00
3794;DHT22;1912;51.358;12.282;2022-12-07T02:33:00;0.20;1.00
3794;DHT22;1912;51.358;12.282;2022-12-07T02:35:38;0.20;1.00
3794;DHT22;1912;51.358;12.282;2022-12-07T02:44:10;0.20;1.00
3794;DHT22;1912;51.358;12.282;2022-12-07T02:46:42;0.20;1.00
3794;DHT22;1912;51.358;12.282;2022-12-07T02:49:09;0.10;1.00
3794;DHT22;1912;51.358;12.282;2022-12-07T02:51:39;0.20;1.00
3794;DHT22;1912;51.358;12.282;2022-12-07T02:54:15;0.20;1.00
3794;DHT22;1912;51.358;12.282;2022-12-07T02:56:55;0.20;1.00
3794;DHT22;1912;51.358;12.282;2022-12-07T03:02:58;0.20;1.00
3794;DHT22;1912;51.358;12.282;2022-12-07T03:11:32;0.20;1.00
3794;DHT22;1912;51.358;12.282;2022-12-07T03:14:21;0.20;1.00
3794;DHT22;1912;51.358;12.282;2022-12-07T03:17:19;0.20;1.00
3794;DHT22;1912;51.358;12.282;2022-12-07T03:19:51;0.20;1.00
3794;DHT22;1912;51.358;12.282;2022-12-07T03:22:19;0.20;1.00
3794;DHT22;1912;51.358;12.282;2022-12-07T03:24:51;0.30;1.00
3794;DHT22;1912;51.358;12.282;2022-12-07T03:27:22;0.30;1.00
3794;DHT22;1912;51.358;12.282;2022-12-07T03:30:12;0.30;1.00
3794;DHT22;1912;51.358;12.282;2022-12-07T03:32:52;0.30;1.00
3794;DHT22;1912;51.358;12.282;2022-12-07T03:35:25;0.30;1.00
3794;DHT22;1912;51.358;12.282;2022-12-07T03:42:52;0.40;1.00
3794;DHT22;1912;51.358;12.282;2022-12-07T03:45:20;0.40;1.00
3794;DHT22;1912;51.358;12.282;2022-12-07T03:48:06;0.40;1.00
3794;DHT22;1912;51.358;12.282;2022-12-07T03:53:24;0.50;1.00
3794;DHT22;1912;51.358;12.282;2022-12-07T03:55:56;0.50;1.00
3794;DHT22;1912;51.358;12.282;2022-12-07T03:58:23;0.60;1.00
3794;DHT22;1912;51.358;12.282;2022-12-07T04:00:50;0.60;1.00
3794;DHT22;1912;51.358;12.282;2022-12-07T04:03:16;0.60;1.00
3794;DHT22;1912;51.358;12.282;2022-12-07T04:05:42;0.70;1.00
3794;DHT22;1912;51.358;12.282;2022-12-07T04:08:09;0.70;1.00
3794;DHT22;1912;51.358;12.282;2022-12-07T04:10:35;0.80;1.00
3794;DHT22;1912;51.358;12.282;2022-12-07T04:13:01;0.80;1.00
3794;DHT22;1912;51.358;12.282;2022-12-07T04:15:26;0.80;1.00
3794;DHT22;1912;51.358;12.282;2022-12-07T04:17:53;0.80;1.00
3794;DHT22;1912;51.358;12.282;2022-12-07T04:20:20;0.80;1.00
3794;DHT22;1912;51.358;12.282;2022-12-07T04:22:46;0.80;1.00
3794;DHT22;1912;51.358;12.282;2022-12-07T04:25:12;0.80;1.00
3794;DHT22;1912;51.358;12.282;2022-12-07T04:27:38;0.80;1.00
3794;DHT22;1912;51.358;12.282;2022-12-07T04:30:04;0.80;1.00
3794;DHT22;1912;51.358;12.282;2022-12-07T04:32:30;0.90;1.00
3794;DHT22;1912;51.358;12.282;2022-12-07T04:34:56;0.80;1.00
3794;DHT22;1912;51.358;12.282;2022-12-07T04:37:22;0.90;1.00
3794;DHT22;1912;51.358;12.282;2022-12-07T04:39:48;0.90;1.00
3794;DHT22;1912;51.358;12.282;2022-12-07T04:42:14;0.90;1.00
3794;DHT22;1912;51.358;12.282;2022-12-07T04:44:40;0.80;1.00
3794;DHT22;1912;51.358;12.282;2022-12-07T04:47:05;0.90;1.00
3794;DHT22;1912;51.358;12.282;2022-12-07T04:49:31;0.90;1.00
3794;DHT22;1912;51.358;12.282;2022-12-07T04:51:57;0.90;1.00
3794;DHT22;1912;51.358;12.282;2022-12-07T04:54:23;0.90;1.00
3794;DHT22;1912;51.358;12.282;2022-12-07T04:56:48;1.00;1.00
3794;DHT22;1912;51.358;12.282;2022-12-07T04:59:16;1.00;1.00
3794;DHT22;1912;51.358;12.282;2022-12-07T05:01:42;1.00;1.00
3794;DHT22;1912;51.358;12.282;2022-12-07T05:04:08;1.00;1.00
3794;DHT22;1912;51.358;12.282;2022-12-07T05:06:34;1.00;1.00
3794;DHT22;1912;51.358;12.282;2022-12-07T05:09:00;1.00;1.00
3794;DHT22;1912;51.358;12.282;2022-12-07T05:11:26;1.10;1.00
3794;DHT22;1912;51.358;12.282;2022-12-07T05:14:14;1.10;1.00
3794;DHT22;1912;51.358;12.282;2022-12-07T05:16:48;1.10;1.00
3794;DHT22;1912;51.358;12.282;2022-12-07T05:19:16;1.10;1.00
3794;DHT22;1912;51.358;12.282;2022-12-07T05:21:42;1.10;1.00
3794;DHT22;1912;51.358;12.282;2022-12-07T05:24:10;1.20;1.00
3794;DHT22;1912;51.358;12.282;2022-12-07T05:26:37;1.20;1.00
3794;DHT22;1912;51.358;12.282;2022-12-07T05:29:03;1.20;1.00
3794;DHT22;1912;51.358;12.282;2022-12-07T05:31:29;1.30;1.00
3794;DHT22;1912;51.358;12.282;2022-12-07T05:33:55;1.30;1.00
3794;DHT22;1912;51.358;12.282;2022-12-07T05:36:21;1.40;1.00
3794;DHT22;1912;51.358;12.282;2022-12-07T05:38:54;1.40;1.00
3794;DHT22;1912;51.358;12.282;2022-12-07T05:41:19;1.40;1.00
3794;DHT22;1912;51.358;12.282;2022-12-07T05:44:04;1.40;1.00
3794;DHT22;1912;51.358;12.282;2022-12-07T05:46:30;1.40;1.00
3794;DHT22;1912;51.358;12.282;2022-12-07T05:48:56;1.50;1.00
3794;DHT22;1912;51.358;12.282;2022-12-07T05:51:22;1.50;1.00
3794;DHT22;1912;51.358;12.282;2022-12-07T05:53:47;1.50;1.00
3794;DHT22;1912;51.358;12.282;2022-12-07T05:56:13;1.50;1.00
3794;DHT22;1912;51.358;12.282;2022-12-07T05:58:39;1.60;1.00
3794;DHT22;1912;51.358;12.282;2022-12-07T06:01:23;1.60;1.00
3794;DHT22;1912;51.358;12.282;2022-12-07T06:03:49;1.60;1.00
3794;DHT22;1912;51.358;12.282;2022-12-07T06:06:14;1.60;1.00
3794;DHT22;1912;51.358;12.282;2022-12-07T06:08:40;1.60;1.00
3794;DHT22;1912;51.358;12.282;2022-12-07T06:11:06;1.60;1.00
3794;DHT22;1912;51.358;12.282;2022-12-07T06:13:50;1.70;1.00
3794;DHT22;1912;51.358;12.282;2022-12-07T06:16:16;1.70;1.00
3794;DHT22;1912;51.358;12.282;2022-12-07T06:18:41;1.70;1.00
3794;DHT22;1912;51.358;12.282;2022-12-07T06:21:07;1.70;1.00
3794;DHT22;1912;51.358;12.282;2022-12-07T06:23:33;1.80;1.00
3794;DHT22;1912;51.358;12.282;2022-12-07T06:25:58;1.80;1.00
3794;DHT22;1912;51.358;12.282;2022-12-07T06:28:24;1.80;1.00
3794;DHT22;1912;51.358;12.282;2022-12-07T06:31:00;1.80;1.00
3794;DHT22;1912;51.358;12.282;2022-12-07T06:33:27;1.70;1.00
3794;DHT22;1912;51.358;12.282;2022-12-07T06:35:53;1.80;1.00
3794;DHT22;1912;51.358;12.282;2022-12-07T06:38:19;1.80;1.00
3794;DHT22;1912;51.358;12.282;2022-12-07T06:40:45;1.70;1.00
3794;DHT22;1912;51.358;12.282;2022-12-07T06:43:11;1.70;1.00
3794;DHT22;1912;51.358;12.282;2022-12-07T06:45:36;1.60;1.00
3794;DHT22;1912;51.358;12.282;2022-12-07T06:48:02;1.60;1.00
3794;DHT22;1912;51.358;12.282;2022-12-07T06:50:28;1.70;1.00
3794;DHT22;1912;51.358;12.282;2022-12-07T06:52:53;1.70;1.00
3794;DHT22;1912;51.358;12.282;2022-12-07T06:55:19;1.70;1.00
3794;DHT22;1912;51.358;12.282;2022-12-07T06:57:45;1.70;1.00
3794;DHT22;1912;51.358;12.282;2022-12-07T07:00:11;1.80;1.00
3794;DHT22;1912;51.358;12.282;2022-12-07T07:02:37;1.80;1.00
3794;DHT22;1912;51.358;12.282;2022-12-07T07:05:03;1.80;1.00
3794;DHT22;1912;51.358;12.282;2022-12-07T07:07:29;1.80;1.00
3794;DHT22;1912;51.358;12.282;2022-12-07T07:09:55;1.80;1.00
3794;DHT22;1912;51.358;12.282;2022-12-07T07:12:20;1.80;1.00
3794;DHT22;1912;51.358;12.282;2022-12-07T07:14:46;1.80;1.00
3794;DHT22;1912;51.358;12.282;2022-12-07T07:17:12;1.80;1.00
3794;DHT22;1912;51.358;12.282;2022-12-07T07:19:38;1.80;1.00
3794;DHT22;1912;51.358;12.282;2022-12-07T07:22:04;1.80;1.00
3794;DHT22;1912;51.358;12.282;2022-12-07T07:24:30;1.80;1.00
3794;DHT22;1912;51.358;12.282;2022-12-07T07:26:55;1.80;1.00
3794;DHT22;1912;51.358;12.282;2022-12-07T07:29:21;1.80;1.00
3794;DHT22;1912;51.358;12.282;2022-12-07T07:31:47;1.80;1.00
3794;DHT22;1912;51.358;12.282;2022-12-07T07:34:13;1.80;1.00
3794;DHT22;1912;51.358;12.282;2022-12-07T07:36:39;1.80;1.00
3794;DHT22;1912;51.358;12.282;2022-12-07T07:39:04;1.90;1.00
3794;DHT22;1912;51.358;12.282;2022-12-07T07:41:31;1.90;1.00
3794;DHT22;1912;51.358;12.282;2022-12-07T07:43:57;2.00;1.00
3794;DHT22;1912;51.358;12.282;2022-12-07T07:46:22;2.00;1.00
3794;DHT22;1912;51.358;12.282;2022-12-07T07:48:48;2.10;1.00
3794;DHT22;1912;51.358;12.282;2022-12-07T07:51:14;2.10;1.00
3794;DHT22;1912;51.358;12.282;2022-12-07T07:53:40;2.10;1.00
3794;DHT22;1912;51.358;12.282;2022-12-07T07:56:05;2.10;1.00
3794;DHT22;1912;51.358;12.282;2022-12-07T07:58:31;2.20;1.00
3794;DHT22;1912;51.358;12.282;2022-12-07T08:01:02;2.20;1.00
3794;DHT22;1912;51.358;12.282;2022-12-07T08:03:29;2.30;1.00
3794;DHT22;1912;51.358;12.282;2022-12-07T08:05:55;2.30;1.00
3794;DHT22;1912;51.358;12.282;2022-12-07T08:08:20;2.30;1.00
3794;DHT22;1912;51.358;12.282;2022-12-07T08:10:46;2.30;1.00
3794;DHT22;1912;51.358;12.282;2022-12-07T08:13:12;2.30;1.00
3794;DHT22;1912;51.358;12.282;2022-12-07T08:15:43;2.30;1.00
3794;DHT22;1912;51.358;12.282;2022-12-07T08:18:09;2.30;1.00
3794;DHT22;1912;51.358;12.282;2022-12-07T08:20:37;2.30;1.00
3794;DHT22;1912;51.358;12.282;2022-12-07T08:23:03;2.40;1.00
3794;DHT22;1912;51.358;12.282;2022-12-07T08:25:31;2.40;1.00
3794;DHT22;1912;51.358;12.282;2022-12-07T08:27:56;2.40;1.00
3794;DHT22;1912;51.358;12.282;2022-12-07T08:30:22;2.50;1.00
3794;DHT22;1912;51.358;12.282;2022-12-07T08:32:48;2.50;1.00
3794;DHT22;1912;51.358;12.282;2022-12-07T08:35:15;2.60;1.00
3794;DHT22;1912;51.358;12.282;2022-12-07T08:37:41;2.70;1.00
3794;DHT22;1912;51.358;12.282;2022-12-07T08:40:08;2.80;1.00
3794;DHT22;1912;51.358;12.282;2022-12-07T08:42:35;2.90;1.00
3794;DHT22;1912;51.358;12.282;2022-12-07T08:45:10;3.00;1.00
3794;DHT22;1912;51.358;12.282;2022-12-07T08:47:40;3.10;1.00
3794;DHT22;1912;51.358;12.282;2022-12-07T08:50:09;3.10;1.00
3794;DHT22;1912;51.358;12.282;2022-12-07T08:52:36;3.10;1.00
3794;DHT22;1912;51.358;12.282;2022-12-07T08:55:03;3.10;1.00
3794;DHT22;1912;51.358;12.282;2022-12-07T08:57:32;3.20;1.00
3794;DHT22;1912;51.358;12.282;2022-12-07T09:00:00;3.20;1.00
3794;DHT22;1912;51.358;12.282;2022-12-07T09:02:25;3.20;1.00
3794;DHT22;1912;51.358;12.282;2022-12-07T09:04:51;3.20;1.00
3794;DHT22;1912;51.358;12.282;2022-12-07T09:07:17;3.20;1.00
3794;DHT22;1912;51.358;12.282;2022-12-07T09:09:43;3.20;1.00
3794;DHT22;1912;51.358;12.282;2022-12-07T09:12:08;3.30;1.00
3794;DHT22;1912;51.358;12.282;2022-12-07T09:14:35;3.30;1.00
3794;DHT22;1912;51.358;12.282;2022-12-07T09:17:11;3.30;1.00
3794;DHT22;1912;51.358;12.282;2022-12-07T09:19:38;3.30;1.00
3794;DHT22;1912;51.358;12.282;2022-12-07T09:22:04;3.40;1.00
3794;DHT22;1912;51.358;12.282;2022-12-07T09:24:31;3.40;1.00
3794;DHT22;1912;51.358;12.282;2022-12-07T09:26:57;3.40;1.00
3794;DHT22;1912;51.358;12.282;2022-12-07T09:29:24;3.40;1.00
3794;DHT22;1912;51.358;12.282;2022-12-07T09:31:51;3.30;1.00
3794;DHT22;1912;51.358;12.282;2022-12-07T09:34:17;3.30;1.00
3794;DHT22;1912;51.358;12.282;2022-12-07T09:36:43;3.30;1.00
3794;DHT22;1912;51.358;12.282;2022-12-07T09:39:09;3.30;1.00
3794;DHT22;1912;51.358;12.282;2022-12-07T09:41:39;3.30;1.00
3794;DHT22;1912;51.358;12.282;2022-12-07T09:44:14;3.30;1.00
3794;DHT22;1912;51.358;12.282;2022-12-07T09:46:48;3.30;1.00
3794;DHT22;1912;51.358;12.282;2022-12-07T09:49:19;3.30;1.00
3794;DHT22;1912;51.358;12.282;2022-12-07T09:51:47;3.30;1.00
3794;DHT22;1912;51.358;12.282;2022-12-07T09:54:23;3.40;1.00
3794;DHT22;1912;51.358;12.282;2022-12-07T09:56:49;3.40;1.00
3794;DHT22;1912;51.358;12.282;2022-12-07T09:59:17;3.40;1.00
3794;DHT22;1912;51.358;12.282;2022-12-07T10:01:46;3.50;1.00
3794;DHT22;1912;51.358;12.282;2022-12-07T10:04:16;3.50;1.00
3794;DHT22;1912;51.358;12.282;2022-12-07T10:06:44;3.60;1.00
3794;DHT22;1912;51.358;12.282;2022-12-07T10:09:15;3.60;1.00
3794;DHT22;1912;51.358;12.282;2022-12-07T10:12:05;3.60;1.00
3794;DHT22;1912;51.358;12.282;2022-12-07T10:14:36;3.60;1.00
3794;DHT22;1912;51.358;12.282;2022-12-07T10:17:29;3.70;1.00
3794;DHT22;1912;51.358;12.282;2022-12-07T10:22:36;3.70;1.00
3794;DHT22;1912;51.358;12.282;2022-12-07T10:25:18;3.80;1.00
3794;DHT22;1912;51.358;12.282;2022-12-07T10:28:00;3.80;1.00
3794;DHT22;1912;51.358;12.282;2022-12-07T10:30:33;3.80;1.00
3794;DHT22;1912;51.358;12.282;2022-12-07T10:32:59;3.80;1.00
3794;DHT22;1912;51.358;12.282;2022-12-07T10:35:29;3.80;1.00
3794;DHT22;1912;51.358;12.282;2022-12-07T10:37:58;3.70;1.00
3794;DHT22;1912;51.358;12.282;2022-12-07T10:49:25;3.80;1.00
3794;DHT22;1912;51.358;12.282;2022-12-07T10:55:16;3.80;1.00
3794;DHT22;1912;51.358;12.282;2022-12-07T11:10:18;3.40;1.00
3794;DHT22;1912;51.358;12.282;2022-12-07T11:24:04;3.40;1.00
3794;DHT22;1912;51.358;12.282;2022-12-07T11:27:13;3.40;1.00
3794;DHT22;1912;51.358;12.282;2022-12-07T11:30:07;3.40;1.00
3794;DHT22;1912;51.358;12.282;2022-12-07T11:35:50;3.50;1.00
3794;DHT22;1912;51.358;12.282;2022-12-07T11:38:28;3.50;1.00
3794;DHT22;1912;51.358;12.282;2022-12-07T11:41:03;3.50;1.00
3794;DHT22;1912;51.358;12.282;2022-12-07T11:47:02;3.60;1.00
3794;DHT22;1912;51.358;12.282;2022-12-07T11:49:42;3.60;1.00
3794;DHT22;1912;51.358;12.282;2022-12-07T11:54:52;3.70;1.00
3794;DHT22;1912;51.358;12.282;2022-12-07T11:57:41;3.70;1.00
3794;DHT22;1912;51.358;12.282;2022-12-07T12:00:16;3.80;1.00
3794;DHT22;1912;51.358;12.282;2022-12-07T12:02:58;3.90;1.00
3794;DHT22;1912;51.358;12.282;2022-12-07T12:05:27;3.90;1.00
3794;DHT22;1912;51.358;12.282;2022-12-07T12:08:11;3.90;1.00
3794;DHT22;1912;51.358;12.282;2022-12-07T12:17:04;4.00;1.00
3794;DHT22;1912;51.358;12.282;2022-12-07T12:20:13;4.10;1.00
3794;DHT22;1912;51.358;12.282;2022-12-07T12:22:58;4.10;1.00
3794;DHT22;1912;51.358;12.282;2022-12-07T12:25:35;4.20;1.00
3794;DHT22;1912;51.358;12.282;2022-12-07T12:28:02;4.20;1.00
3794;DHT22;1912;51.358;12.282;2022-12-07T12:33:45;4.30;1.00
3794;DHT22;1912;51.358;12.282;2022-12-07T12:50:12;4.30;1.00
3794;DHT22;1912;51.358;12.282;2022-12-07T12:53:19;4.30;1.00
3794;DHT22;1912;51.358;12.282;2022-12-07T12:56:11;4.30;1.00
3794;DHT22;1912;51.358;12.282;2022-12-07T12:58:46;4.30;1.00
3794;DHT22;1912;51.358;12.282;2022-12-07T13:04:17;4.30;1.00
3794;DHT22;1912;51.358;12.282;2022-12-07T13:07:03;4.30;1.00
3794;DHT22;1912;51.358;12.282;2022-12-07T13:09:32;4.30;1.00
3794;DHT22;1912;51.358;12.282;2022-12-07T13:12:19;4.30;1.00
3794;DHT22;1912;51.358;12.282;2022-12-07T13:14:58;4.30;1.00
3794;DHT22;1912;51.358;12.282;2022-12-07T13:19:57;4.40;1.00
3794;DHT22;1912;51.358;12.282;2022-12-07T13:25:19;4.40;1.00
3794;DHT22;1912;51.358;12.282;2022-12-07T13:27:59;4.40;1.00
3794;DHT22;1912;51.358;12.282;2022-12-07T13:30:29;4.50;1.00
3794;DHT22;1912;51.358;12.282;2022-12-07T13:32:58;4.40;1.00
3794;DHT22;1912;51.358;12.282;2022-12-07T13:35:33;4.40;1.00
3794;DHT22;1912;51.358;12.282;2022-12-07T13:38:24;4.40;1.00
3794;DHT22;1912;51.358;12.282;2022-12-07T13:41:14;4.40;1.00
3794;DHT22;1912;51.358;12.282;2022-12-07T13:43:53;4.40;1.00
3794;DHT22;1912;51.358;12.282;2022-12-07T13:51:54;4.40;1.00
3794;DHT22;1912;51.358;12.282;2022-12-07T13:54:21;4.40;1.00
3794;DHT22;1912;51.358;12.282;2022-12-07T13:56:50;4.30;1.00
3794;DHT22;1912;51.358;12.282;2022-12-07T13:59:19;4.30;1.00
3794;DHT22;1912;51.358;12.282;2022-12-07T14:01:49;4.30;1.00
3794;DHT22;1912;51.358;12.282;2022-12-07T14:07:01;4.20;1.00
3794;DHT22;1912;51.358;12.282;2022-12-07T14:10:00;4.20;1.00
3794;DHT22;1912;51.358;12.282;2022-12-07T14:12:30;4.20;1.00
3794;DHT22;1912;51.358;12.282;2022-12-07T14:14:57;4.10;1.00
3794;DHT22;1912;51.358;12.282;2022-12-07T14:17:25;4.10;1.00
3794;DHT22;1912;51.358;12.282;2022-12-07T14:19:53;4.00;1.00
3794;DHT22;1912;51.358;12.282;2022-12-07T14:22:28;4.00;1.00
3794;DHT22;1912;51.358;12.282;2022-12-07T14:27:38;3.90;1.00
3794;DHT22;1912;51.358;12.282;2022-12-07T14:30:05;4.00;1.00
3794;DHT22;1912;51.358;12.282;2022-12-07T14:32:34;3.90;1.00
3794;DHT22;1912;51.358;12.282;2022-12-07T14:35:11;3.90;1.00
3794;DHT22;1912;51.358;12.282;2022-12-07T14:37:40;3.90;1.00
3794;DHT22;1912;51.358;12.282;2022-12-07T14:40:13;3.80;1.00
3794;DHT22;1912;51.358;12.282;2022-12-07T14:42:40;3.80;1.00
3794;DHT22;1912;51.358;12.282;2022-12-07T14:45:13;3.80;1.00
3794;DHT22;1912;51.358;12.282;2022-12-07T14:47:40;3.70;1.00
3794;DHT22;1912;51.358;12.282;2022-12-07T14:50:07;3.70;1.00
3794;DHT22;1912;51.358;12.282;2022-12-07T14:52:33;3.70;1.00
3794;DHT22;1912;51.358;12.282;2022-12-07T14:54:59;3.70;1.00
3794;DHT22;1912;51.358;12.282;2022-12-07T14:57:25;3.70;1.00
3794;DHT22;1912;51.358;12.282;2022-12-07T14:59:50;3.60;1.00
3794;DHT22;1912;51.358;12.282;2022-12-07T15:02:16;3.60;1.00
3794;DHT22;1912;51.358;12.282;2022-12-07T15:04:42;3.60;1.00
3794;DHT22;1912;51.358;12.282;2022-12-07T15:07:17;3.50;1.00
3794;DHT22;1912;51.358;12.282;2022-12-07T15:09:45;3.60;1.00
3794;DHT22;1912;51.358;12.282;2022-12-07T15:12:11;3.50;1.00
3794;DHT22;1912;51.358;12.282;2022-12-07T15:14:36;3.50;1.00
3794;DHT22;1912;51.358;12.282;2022-12-07T15:17:02;3.50;1.00
3794;DHT22;1912;51.358;12.282;2022-12-07T15:19:28;3.50;1.00
3794;DHT22;1912;51.358;12.282;2022-12-07T15:21:54;3.50;1.00
3794;DHT22;1912;51.358;12.282;2022-12-07T15:24:20;3.50;1.00
3794;DHT22;1912;51.358;12.282;2022-12-07T15:26:46;3.40;1.00
3794;DHT22;1912;51.358;12.282;2022-12-07T15:29:12;3.40;1.00
3794;DHT22;1912;51.358;12.282;2022-12-07T15:31:39;3.40;1.00
3794;DHT22;1912;51.358;12.282;2022-12-07T15:34:05;3.40;1.00
3794;DHT22;1912;51.358;12.282;2022-12-07T15:36:32;3.40;1.00
3794;DHT22;1912;51.358;12.282;2022-12-07T15:39:00;3.40;1.00
3794;DHT22;1912;51.358;12.282;2022-12-07T15:41:26;3.40;1.00
3794;DHT22;1912;51.358;12.282;2022-12-07T15:43:52;3.50;1.00
3794;DHT22;1912;51.358;12.282;2022-12-07T15:46:38;3.40;1.00
3794;DHT22;1912;51.358;12.282;2022-12-07T15:49:12;3.40;1.00
3794;DHT22;1912;51.358;12.282;2022-12-07T15:51:40;3.50;1.00
3794;DHT22;1912;51.358;12.282;2022-12-07T15:54:06;3.50;1.00
3794;DHT22;1912;51.358;12.282;2022-12-07T15:56:32;3.40;1.00
3794;DHT22;1912;51.358;12.282;2022-12-07T15:58:57;3.40;1.00
3794;DHT22;1912;51.358;12.282;2022-12-07T16:01:23;3.40;1.00
3794;DHT22;1912;51.358;12.282;2022-12-07T16:03:49;3.40;1.00
3794;DHT22;1912;51.358;12.282;2022-12-07T16:06:18;3.40;1.00
3794;DHT22;1912;51.358;12.282;2022-12-07T16:08:45;3.40;1.00
3794;DHT22;1912;51.358;12.282;2022-12-07T16:11:12;3.50;1.00
3794;DHT22;1912;51.358;12.282;2022-12-07T16:13:38;3.40;1.00
3794;DHT22;1912;51.358;12.282;2022-12-07T16:16:11;3.20;1.00
3794;DHT22;1912;51.358;12.282;2022-12-07T16:18:38;3.10;1.00
3794;DHT22;1912;51.358;12.282;2022-12-07T16:21:04;3.00;1.00
3794;DHT22;1912;51.358;12.282;2022-12-07T16:23:30;2.90;1.00
3794;DHT22;1912;51.358;12.282;2022-12-07T16:26:15;2.80;1.00
3794;DHT22;1912;51.358;12.282;2022-12-07T16:28:43;2.80;1.00
3794;DHT22;1912;51.358;12.282;2022-12-07T16:31:14;2.80;1.00
3794;DHT22;1912;51.358;12.282;2022-12-07T16:33:42;2.70;1.00
3794;DHT22;1912;51.358;12.282;2022-12-07T16:36:10;2.70;1.00
3794;DHT22;1912;51.358;12.282;2022-12-07T16:38:42;2.60;1.00
3794;DHT22;1912;51.358;12.282;2022-12-07T16:41:08;2.50;1.00
3794;DHT22;1912;51.358;12.282;2022-12-07T16:43:35;2.50;1.00
3794;DHT22;1912;51.358;12.282;2022-12-07T16:46:02;2.50;1.00
3794;DHT22;1912;51.358;12.282;2022-12-07T16:48:29;2.40;1.00
3794;DHT22;1912;51.358;12.282;2022-12-07T16:50:55;2.40;1.00
3794;DHT22;1912;51.358;12.282;2022-12-07T16:53:22;2.40;1.00
3794;DHT22;1912;51.358;12.282;2022-12-07T16:55:49;2.40;1.00
3794;DHT22;1912;51.358;12.282;2022-12-07T16:58:16;2.50;1.00
3794;DHT22;1912;51.358;12.282;2022-12-07T17:00:43;2.50;1.00
3794;DHT22;1912;51.358;12.282;2022-12-07T17:03:09;2.50;1.00
3794;DHT22;1912;51.358;12.282;2022-12-07T17:05:40;2.50;1.00
3794;DHT22;1912;51.358;12.282;2022-12-07T17:08:07;2.60;1.00
3794;DHT22;1912;51.358;12.282;2022-12-07T17:10:35;2.60;1.00
3794;DHT22;1912;51.358;12.282;2022-12-07T17:13:03;2.60;1.00
3794;DHT22;1912;51.358;12.282;2022-12-07T17:16:04;2.70;1.00
3794;DHT22;1912;51.358;12.282;2022-12-07T17:18:33;2.60;1.00
3794;DHT22;1912;51.358;12.282;2022-12-07T17:21:06;2.70;1.00
3794;DHT22;1912;51.358;12.282;2022-12-07T17:23:34;2.70;1.00
3794;DHT22;1912;51.358;12.282;2022-12-07T17:26:22;2.70;1.00
3794;DHT22;1912;51.358;12.282;2022-12-07T17:28:48;2.70;1.00
3794;DHT22;1912;51.358;12.282;2022-12-07T17:31:16;2.70;1.00
3794;DHT22;1912;51.358;12.282;2022-12-07T17:33:43;2.80;1.00
3794;DHT22;1912;51.358;12.282;2022-12-07T17:36:27;2.70;1.00
3794;DHT22;1912;51.358;12.282;2022-12-07T17:38:54;2.70;1.00
3794;DHT22;1912;51.358;12.282;2022-12-07T17:41:27;2.80;1.00
3794;DHT22;1912;51.358;12.282;2022-12-07T17:44:14;2.80;1.00
3794;DHT22;1912;51.358;12.282;2022-12-07T17:46:42;2.90;1.00
3794;DHT22;1912;51.358;12.282;2022-12-07T17:49:09;2.90;1.00
3794;DHT22;1912;51.358;12.282;2022-12-07T17:51:35;2.90;1.00
3794;DHT22;1912;51.358;12.282;2022-12-07T17:54:19;3.00;1.00
3794;DHT22;1912;51.358;12.282;2022-12-07T17:56:46;2.90;1.00
3794;DHT22;1912;51.358;12.282;2022-12-07T17:59:12;2.90;1.00
3794;DHT22;1912;51.358;12.282;2022-12-07T18:01:38;2.90;1.00
3794;DHT22;1912;51.358;12.282;2022-12-07T18:04:05;2.90;1.00
3794;DHT22;1912;51.358;12.282;2022-12-07T18:06:31;2.80;1.00
3794;DHT22;1912;51.358;12.282;2022-12-07T18:08:57;2.80;1.00
3794;DHT22;1912;51.358;12.282;2022-12-07T18:11:23;2.80;1.00
3794;DHT22;1912;51.358;12.282;2022-12-07T18:13:49;2.80;1.00
3794;DHT22;1912;51.358;12.282;2022-12-07T18:16:18;2.70;1.00
3794;DHT22;1912;51.358;12.282;2022-12-07T18:18:46;2.70;1.00
3794;DHT22;1912;51.358;12.282;2022-12-07T18:21:18;2.70;1.00
3794;DHT22;1912;51.358;12.282;2022-12-07T18:23:49;2.80;1.00
3794;DHT22;1912;51.358;12.282;2022-12-07T18:26:21;2.70;1.00
3794;DHT22;1912;51.358;12.282;2022-12-07T18:28:48;2.70;1.00
3794;DHT22;1912;51.358;12.282;2022-12-07T18:31:15;2.70;1.00
3794;DHT22;1912;51.358;12.282;2022-12-07T18:33:42;2.70;1.00
3794;DHT22;1912;51.358;12.282;2022-12-07T18:36:09;2.70;1.00
3794;DHT22;1912;51.358;12.282;2022-12-07T18:38:35;2.70;1.00
3794;DHT22;1912;51.358;12.282;2022-12-07T18:41:02;2.70;1.00